createdAt,value
2023-02-19T00:01:12.989Z,96.98
2023-02-19T00:03:40.370Z,96.88
2023-02-19T00:06:09.959Z,96.84
2023-02-19T00:08:38.329Z,96.81
2023-02-19T00:11:11.108Z,97.09
2023-02-19T00:13:39.114Z,97.03
2023-02-19T00:16:16.619Z,97.22
2023-02-19T00:18:43.484Z,96.99
2023-02-19T00:21:10.314Z,97.09
2023-02-19T00:23:37.605Z,97.08
2023-02-19T00:26:18.089Z,97.27
2023-02-19T00:28:46.743Z,97.13
2023-02-19T00:31:18.165Z,97.41
2023-02-19T00:33:45.696Z,97.32
2023-02-19T00:36:13.547Z,97.35
2023-02-19T00:38:41.956Z,97.49
2023-02-19T00:41:21.614Z,97.59
2023-02-19T00:43:53.537Z,97.37
2023-02-19T00:46:28.656Z,97.66
2023-02-19T00:48:56.260Z,97.79
2023-02-19T00:51:25.683Z,97.58
2023-02-19T00:53:52.520Z,97.65
2023-02-19T00:56:19.279Z,97.51
2023-02-19T00:58:46.500Z,97.52
2023-02-19T01:01:13.589Z,97.49
2023-02-19T01:03:40.711Z,97.46
2023-02-19T01:06:09.517Z,97.52
2023-02-19T01:08:36.392Z,97.59
2023-02-19T01:11:04.558Z,97.63
2023-02-19T01:13:31.527Z,97.49
2023-02-19T01:16:09.330Z,97.41
2023-02-19T01:18:35.999Z,97.24
2023-02-19T01:21:07.911Z,97.29
2023-02-19T01:23:35.251Z,97.28
2023-02-19T01:26:05.358Z,97.19
2023-02-19T01:28:31.904Z,96.99
2023-02-19T01:31:03.704Z,96.99
2023-02-19T01:33:31.198Z,96.90
2023-02-19T01:35:57.800Z,96.87
2023-02-19T01:38:24.235Z,96.83
2023-02-19T01:40:58.351Z,96.99
2023-02-19T01:43:25.072Z,96.63
2023-02-19T01:45:53.445Z,96.79
2023-02-19T01:48:39.254Z,96.65
2023-02-19T01:51:11.312Z,96.64
2023-02-19T01:53:41.910Z,96.66
2023-02-19T01:56:09.817Z,96.67
2023-02-19T01:58:37.716Z,96.54
2023-02-19T02:01:07.116Z,96.76
2023-02-19T02:03:35.609Z,96.70
2023-02-19T02:06:07.918Z,96.62
2023-02-19T02:08:52.847Z,96.84
2023-02-19T02:11:20.305Z,96.91
2023-02-19T02:13:46.916Z,96.92
2023-02-19T02:16:26.971Z,96.63
2023-02-19T02:19:00.049Z,96.79
2023-02-19T02:21:44.458Z,96.72
2023-02-19T02:24:43.873Z,96.69
2023-02-19T02:27:33.214Z,96.71
2023-02-19T02:30:38.637Z,96.61
2023-02-19T02:33:41.294Z,96.65
2023-02-19T02:36:13.106Z,96.49
2023-02-19T02:38:42.739Z,96.66
2023-02-19T02:41:09.867Z,96.63
2023-02-19T02:43:36.556Z,96.63
2023-02-19T02:46:03.136Z,96.63
2023-02-19T02:48:47.280Z,96.53
2023-02-19T02:51:31.827Z,96.41
2023-02-19T02:54:25.455Z,96.39
2023-02-19T02:56:53.004Z,96.25
2023-02-19T02:59:23.649Z,96.52
2023-02-19T03:02:14.278Z,96.56
2023-02-19T03:05:25.264Z,96.35
2023-02-19T03:08:11.242Z,96.50
2023-02-19T03:10:49.040Z,96.49
2023-02-19T03:13:56.889Z,96.47
2023-02-19T03:16:47.575Z,96.65
2023-02-19T03:19:19.169Z,96.51
2023-02-19T03:21:51.724Z,96.54
2023-02-19T03:24:41.038Z,96.30
2023-02-19T03:27:11.537Z,96.45
2023-02-19T03:29:41.005Z,96.72
2023-02-19T03:32:33.458Z,96.51
2023-02-19T03:35:20.669Z,96.55
2023-02-19T03:38:04.502Z,96.40
2023-02-19T03:40:40.044Z,96.40
2023-02-19T03:43:23.421Z,96.27
2023-02-19T03:45:49.798Z,96.50
2023-02-19T03:48:22.898Z,96.09
2023-02-19T03:51:05.494Z,96.20
2023-02-19T03:53:34.877Z,96.23
2023-02-19T03:56:10.901Z,96.26
2023-02-19T03:58:49.230Z,96.29
2023-02-19T04:01:32.419Z,96.52
2023-02-19T04:04:12.645Z,96.54
2023-02-19T04:06:42.140Z,96.31
2023-02-19T04:09:11.703Z,96.63
2023-02-19T04:11:38.978Z,96.74
2023-02-19T04:14:11.594Z,96.76
2023-02-19T04:16:42.669Z,96.72
2023-02-19T04:19:16.823Z,96.64
2023-02-19T04:21:45.268Z,96.92
2023-02-19T04:24:18.842Z,96.74
2023-02-19T04:26:45.363Z,96.86
2023-02-19T04:29:11.860Z,97.00
2023-02-19T04:31:38.604Z,96.86
2023-02-19T04:34:05.378Z,96.97
2023-02-19T04:36:33.158Z,96.92
2023-02-19T04:38:59.638Z,96.84
2023-02-19T04:41:26.055Z,96.68
2023-02-19T04:43:52.498Z,96.84
2023-02-19T04:46:19.039Z,96.65
2023-02-19T04:48:45.571Z,96.92
2023-02-19T04:51:12.358Z,96.75
2023-02-19T04:53:38.983Z,96.64
2023-02-19T04:56:10.612Z,96.59
2023-02-19T04:58:37.357Z,96.56
2023-02-19T05:01:04.358Z,96.46
2023-02-19T05:03:31.490Z,96.55
2023-02-19T05:05:57.899Z,96.64
2023-02-19T05:08:24.281Z,96.47
2023-02-19T05:10:50.694Z,96.39
2023-02-19T05:13:17.174Z,96.15
2023-02-19T05:16:04.070Z,96.32
2023-02-19T05:18:31.368Z,96.44
2023-02-19T05:20:59.346Z,96.43
2023-02-19T05:23:25.870Z,96.37
2023-02-19T05:25:52.690Z,96.31
2023-02-19T05:28:19.259Z,96.25
2023-02-19T05:30:51.108Z,96.17
2023-02-19T05:33:20.820Z,96.22
2023-02-19T05:35:49.829Z,96.05
2023-02-19T05:38:17.284Z,96.17
2023-02-19T05:40:44.875Z,96.31
2023-02-19T05:43:12.149Z,96.25
2023-02-19T05:45:39.005Z,96.27
2023-02-19T05:48:07.014Z,96.26
2023-02-19T05:50:35.341Z,96.41
2023-02-19T05:53:02.877Z,96.49
2023-02-19T05:55:30.133Z,96.19
2023-02-19T05:57:56.529Z,96.24
2023-02-19T06:00:23.173Z,96.22
2023-02-19T06:02:49.633Z,96.16
2023-02-19T06:05:16.116Z,96.28
2023-02-19T06:07:42.972Z,95.90
2023-02-19T06:10:11.067Z,95.84
2023-02-19T06:12:38.402Z,95.78
2023-02-19T06:15:06.439Z,95.63
2023-02-19T06:17:34.067Z,95.64
2023-02-19T06:20:00.881Z,95.85
2023-02-19T06:22:27.964Z,95.69
2023-02-19T06:24:54.341Z,95.71
2023-02-19T06:27:21.148Z,95.78
2023-02-19T06:29:47.607Z,95.56
2023-02-19T06:32:14.203Z,95.83
2023-02-19T06:34:40.703Z,95.83
2023-02-19T06:37:07.190Z,95.96
2023-02-19T06:39:33.612Z,96.03
2023-02-19T06:42:00.152Z,96.29
2023-02-19T06:44:26.577Z,96.21
2023-02-19T06:46:55.350Z,96.35
2023-02-19T06:49:21.986Z,96.25
2023-02-19T06:51:48.456Z,96.50
2023-02-19T06:54:14.937Z,96.63
2023-02-19T06:56:42.882Z,96.62
2023-02-19T06:59:16.910Z,96.78
2023-02-19T07:01:44.853Z,96.78
2023-02-19T07:04:11.414Z,96.91
2023-02-19T07:06:38.234Z,96.74
2023-02-19T07:09:06.727Z,96.90
2023-02-19T07:11:34.967Z,96.85
2023-02-19T07:14:03.724Z,96.84
2023-02-19T07:16:30.814Z,96.85
2023-02-19T07:18:58.641Z,96.84
2023-02-19T07:21:25.291Z,96.78
2023-02-19T07:23:52.175Z,96.84
2023-02-19T07:26:20.937Z,96.95
2023-02-19T07:28:49.761Z,97.02
2023-02-19T07:31:18.696Z,96.90
2023-02-19T07:33:46.141Z,96.98
2023-02-19T07:36:14.072Z,96.97
2023-02-19T07:38:40.518Z,97.22
2023-02-19T07:41:07.574Z,96.92
2023-02-19T07:43:36.673Z,96.80
2023-02-19T07:46:09.062Z,96.93
2023-02-19T07:48:36.728Z,97.09
2023-02-19T07:51:04.991Z,96.82
2023-02-19T07:53:33.533Z,96.97
2023-02-19T07:56:01.968Z,96.75
2023-02-19T07:58:29.113Z,96.76
2023-02-19T08:00:55.859Z,96.75
2023-02-19T08:03:22.455Z,96.87
2023-02-19T08:05:51.379Z,96.69
2023-02-19T08:08:18.000Z,96.67
2023-02-19T08:11:02.827Z,96.43
2023-02-19T08:13:30.850Z,96.54
2023-02-19T08:16:20.117Z,96.62
2023-02-19T08:18:48.746Z,96.50
2023-02-19T08:21:18.220Z,96.38
2023-02-19T08:23:46.192Z,96.30
2023-02-19T08:26:12.595Z,96.32
2023-02-19T08:28:39.052Z,96.16
2023-02-19T08:31:07.463Z,96.23
2023-02-19T08:33:34.191Z,96.29
2023-02-19T08:36:09.047Z,96.44
2023-02-19T08:38:36.853Z,96.39
2023-02-19T08:41:09.214Z,96.53
2023-02-19T08:43:36.182Z,96.59
2023-02-19T08:46:06.485Z,96.58
2023-02-19T08:48:33.630Z,96.70
2023-02-19T08:51:03.866Z,96.63
2023-02-19T08:53:33.140Z,96.33
2023-02-19T08:56:04.846Z,96.39
2023-02-19T08:58:32.798Z,96.17
2023-02-19T09:00:59.540Z,96.08
2023-02-19T09:03:26.252Z,96.25
2023-02-19T09:05:53.010Z,96.17
2023-02-19T09:08:19.587Z,96.07
2023-02-19T09:10:49.296Z,95.82
2023-02-19T09:13:15.720Z,95.53
2023-02-19T09:15:42.097Z,95.48
2023-02-19T09:18:08.510Z,95.45
2023-02-19T09:20:34.922Z,95.44
2023-02-19T09:23:01.424Z,95.16
2023-02-19T09:25:30.806Z,94.98
2023-02-19T09:27:57.370Z,94.88
2023-02-19T09:30:24.038Z,94.69
2023-02-19T09:32:50.558Z,94.84
2023-02-19T09:35:17.002Z,94.57
2023-02-19T09:37:43.557Z,94.35
2023-02-19T09:40:10.850Z,94.29
2023-02-19T09:42:41.921Z,94.42
2023-02-19T09:45:16.312Z,94.30
2023-02-19T09:47:42.787Z,94.11
2023-02-19T09:50:15.045Z,94.33
2023-02-19T09:53:01.552Z,94.45
2023-02-19T09:55:36.703Z,94.54
2023-02-19T09:58:15.281Z,94.52
2023-02-19T10:00:41.807Z,94.40
2023-02-19T10:03:16.054Z,94.16
2023-02-19T10:05:42.990Z,94.47
2023-02-19T10:08:15.850Z,94.44
2023-02-19T10:10:44.218Z,94.26
2023-02-19T10:13:22.721Z,94.34
2023-02-19T10:15:56.269Z,94.36
2023-02-19T10:18:25.795Z,94.04
2023-02-19T10:20:53.004Z,94.24
2023-02-19T10:23:19.973Z,94.12
2023-02-19T10:25:54.196Z,94.26
2023-02-19T10:28:24.629Z,94.29
2023-02-19T10:30:57.692Z,94.37
2023-02-19T10:33:25.291Z,94.66
2023-02-19T10:35:56.189Z,94.52
2023-02-19T10:38:30.167Z,94.69
2023-02-19T10:41:01.827Z,94.57
2023-02-19T10:43:33.866Z,94.58
2023-02-19T10:46:08.516Z,94.75
2023-02-19T10:48:40.815Z,94.54
2023-02-19T10:51:11.280Z,94.49
2023-02-19T10:53:45.169Z,94.54
2023-02-19T10:56:26.278Z,94.30
2023-02-19T10:58:53.161Z,94.31
2023-02-19T11:01:22.224Z,94.09
2023-02-19T11:03:52.464Z,94.01
2023-02-19T11:06:26.650Z,94.21
2023-02-19T11:08:58.724Z,94.61
2023-02-19T11:11:37.833Z,94.08
2023-02-19T11:14:14.650Z,94.01
2023-02-19T11:16:46.286Z,93.77
2023-02-19T11:19:36.597Z,93.60
2023-02-19T11:22:19.886Z,93.68
2023-02-19T11:24:56.201Z,93.51
2023-02-19T11:27:25.255Z,93.18
2023-02-19T11:29:51.713Z,93.25
2023-02-19T11:32:21.195Z,93.11
2023-02-19T11:34:48.107Z,93.24
2023-02-19T11:37:16.976Z,93.20
2023-02-19T11:39:46.558Z,92.92
2023-02-19T11:42:30.223Z,92.59
2023-02-19T11:45:28.680Z,92.42
2023-02-19T11:48:10.707Z,92.44
2023-02-19T11:51:00.407Z,92.24
2023-02-19T11:53:28.343Z,92.14
2023-02-19T11:56:11.510Z,91.88
2023-02-19T11:58:59.514Z,91.56
2023-02-19T12:01:56.443Z,91.76
2023-02-19T12:04:25.853Z,91.66
2023-02-19T12:07:25.807Z,91.31
2023-02-19T12:10:00.910Z,91.42
2023-02-19T12:12:47.251Z,91.24
2023-02-19T12:15:34.936Z,91.54
2023-02-19T12:18:31.256Z,91.41
2023-02-19T12:21:10.620Z,91.40
2023-02-19T12:23:54.696Z,91.56
2023-02-19T12:26:28.605Z,91.61
2023-02-19T12:29:05.850Z,91.70
2023-02-19T12:31:35.320Z,91.77
2023-02-19T12:34:29.271Z,91.59
2023-02-19T12:37:07.977Z,91.75
2023-02-19T12:39:41.090Z,91.52
2023-02-19T12:42:25.985Z,91.20
2023-02-19T12:45:01.222Z,91.50
2023-02-19T12:47:38.077Z,91.95
2023-02-19T12:50:21.515Z,91.91
2023-02-19T12:52:53.796Z,91.58
2023-02-19T12:55:28.814Z,91.45
2023-02-19T12:57:57.996Z,91.52
2023-02-19T13:00:42.812Z,91.38
2023-02-19T13:03:32.460Z,91.71
2023-02-19T13:06:21.678Z,91.52
2023-02-19T13:09:06.698Z,91.73
2023-02-19T13:11:51.668Z,91.50
2023-02-19T13:14:36.923Z,91.27
2023-02-19T13:17:19.854Z,91.37
2023-02-19T13:19:50.424Z,91.27
2023-02-19T13:22:50.172Z,91.08
2023-02-19T13:25:19.096Z,91.01
2023-02-19T13:28:03.799Z,91.41
2023-02-19T13:31:00.228Z,91.37
2023-02-19T13:33:48.411Z,91.41
2023-02-19T13:36:21.506Z,91.08
2023-02-19T13:38:50.217Z,91.10
2023-02-19T13:41:40.349Z,91.00
2023-02-19T13:44:16.069Z,91.09
2023-02-19T13:46:45.464Z,90.57
2023-02-19T13:49:33.720Z,90.69
2023-02-19T13:52:02.223Z,90.70
2023-02-19T13:54:33.352Z,90.49
2023-02-19T13:57:22.786Z,90.10
2023-02-19T13:59:50.699Z,90.18
2023-02-19T14:02:20.214Z,90.04
2023-02-19T14:05:01.214Z,90.08
2023-02-19T14:07:27.588Z,89.76
2023-02-19T14:09:54.682Z,89.19
2023-02-19T14:12:22.890Z,88.98
2023-02-19T14:14:56.959Z,88.58
2023-02-19T14:17:35.167Z,88.55
2023-02-19T14:20:09.070Z,88.49
2023-02-19T14:22:55.528Z,88.21
2023-02-19T14:25:30.728Z,88.07
2023-02-19T14:28:13.402Z,88.13
2023-02-19T14:31:11.234Z,87.66
2023-02-19T14:33:40.211Z,87.94
2023-02-19T14:36:16.837Z,87.48
2023-02-19T14:39:12.425Z,87.23
2023-02-19T14:41:42.153Z,86.56
2023-02-19T14:44:19.398Z,86.43
2023-02-19T14:46:57.869Z,85.62
2023-02-19T14:50:02.855Z,85.51
2023-02-19T14:52:36.603Z,85.60
2023-02-19T14:55:14.913Z,85.42
2023-02-19T14:57:45.723Z,85.62
2023-02-19T15:00:33.557Z,85.41
2023-02-19T15:03:00.136Z,85.58
2023-02-19T15:05:29.379Z,85.47
2023-02-19T15:07:59.684Z,85.14
2023-02-19T15:10:29.045Z,84.54
2023-02-19T15:13:05.933Z,84.41
2023-02-19T15:15:53.514Z,84.64
2023-02-19T15:18:22.666Z,84.60
2023-02-19T15:20:50.486Z,84.66
2023-02-19T15:23:22.352Z,84.72
2023-02-19T15:25:49.517Z,85.32
2023-02-19T15:28:20.090Z,85.86
2023-02-19T15:30:46.705Z,86.31
2023-02-19T15:33:19.040Z,86.11
2023-02-19T15:35:57.750Z,86.33
2023-02-19T15:38:25.544Z,86.56
2023-02-19T15:40:53.143Z,86.91
2023-02-19T15:43:34.696Z,87.08
2023-02-19T15:46:13.179Z,87.27
2023-02-19T15:48:49.760Z,87.18
2023-02-19T15:51:24.601Z,86.94
2023-02-19T15:54:07.548Z,86.98
2023-02-19T15:56:37.846Z,86.96
2023-02-19T15:59:15.805Z,87.32
2023-02-19T16:01:42.419Z,87.62
2023-02-19T16:04:17.351Z,87.67
2023-02-19T16:06:58.949Z,87.73
2023-02-19T16:09:37.060Z,87.92
2023-02-19T16:12:19.375Z,88.19
2023-02-19T16:14:45.827Z,88.43
2023-02-19T16:17:16.639Z,88.39
2023-02-19T16:19:45.585Z,88.45
2023-02-19T16:22:15.963Z,88.82
2023-02-19T16:24:45.754Z,88.70
2023-02-19T16:27:25.729Z,89.04
2023-02-19T16:29:52.225Z,89.47
2023-02-19T16:32:19.051Z,89.17
2023-02-19T16:34:51.543Z,89.46
2023-02-19T16:37:33.161Z,89.29
2023-02-19T16:40:08.658Z,89.42
2023-02-19T16:42:38.034Z,89.82
2023-02-19T16:45:07.970Z,89.61
2023-02-19T16:47:38.241Z,89.69
2023-02-19T16:50:13.161Z,89.57
2023-02-19T16:52:54.217Z,89.73
2023-02-19T16:55:20.958Z,89.80
2023-02-19T16:57:47.837Z,89.47
2023-02-19T17:00:21.490Z,89.54
2023-02-19T17:02:50.750Z,89.32
2023-02-19T17:05:18.285Z,89.60
2023-02-19T17:07:44.872Z,89.71
2023-02-19T17:10:17.720Z,89.62
2023-02-19T17:12:44.247Z,89.57
2023-02-19T17:15:12.232Z,89.78
2023-02-19T17:17:39.030Z,89.69
2023-02-19T17:20:17.472Z,89.66
2023-02-19T17:22:44.623Z,89.40
2023-02-19T17:25:11.265Z,89.09
2023-02-19T17:27:37.720Z,89.13
2023-02-19T17:30:12.892Z,89.05
2023-02-19T17:32:39.414Z,88.99
2023-02-19T17:35:06.472Z,88.75
2023-02-19T17:37:32.860Z,88.50
2023-02-19T17:39:59.325Z,88.41
2023-02-19T17:42:25.861Z,88.51
2023-02-19T17:44:53.555Z,88.54
2023-02-19T17:47:21.378Z,88.30
2023-02-19T17:49:47.866Z,88.13
2023-02-19T17:52:17.509Z,88.09
2023-02-19T17:54:44.070Z,88.25
2023-02-19T17:57:10.587Z,88.32
2023-02-19T17:59:37.005Z,88.28
2023-02-19T18:02:03.455Z,87.56
2023-02-19T18:04:29.820Z,88.05
2023-02-19T18:06:56.301Z,87.47
2023-02-19T18:09:23.045Z,87.62
2023-02-19T18:11:49.473Z,87.46
2023-02-19T18:14:15.940Z,87.49
2023-02-19T18:16:49.763Z,87.59
2023-02-19T18:19:16.875Z,87.52
2023-02-19T18:21:43.272Z,86.52
2023-02-19T18:24:09.770Z,86.70
2023-02-19T18:26:36.183Z,86.61
2023-02-19T18:29:02.629Z,86.57
2023-02-19T18:31:32.675Z,86.62
2023-02-19T18:33:59.216Z,86.78
2023-02-19T18:36:25.704Z,86.73
2023-02-19T18:38:52.104Z,87.07
2023-02-19T18:41:21.057Z,87.22
2023-02-19T18:43:48.022Z,87.18
2023-02-19T18:46:14.817Z,87.51
2023-02-19T18:48:41.483Z,87.33
2023-02-19T18:51:11.702Z,87.44
2023-02-19T18:53:38.327Z,87.53
2023-02-19T18:56:05.536Z,87.65
2023-02-19T18:58:32.018Z,87.71
2023-02-19T19:00:59.459Z,87.81
2023-02-19T19:03:26.030Z,87.98
2023-02-19T19:05:52.685Z,88.15
2023-02-19T19:08:19.118Z,88.18
2023-02-19T19:10:45.587Z,88.29
2023-02-19T19:13:12.013Z,88.53
2023-02-19T19:15:41.295Z,88.92
2023-02-19T19:18:08.751Z,88.77
2023-02-19T19:20:35.282Z,88.95
2023-02-19T19:23:01.705Z,89.16
2023-02-19T19:25:28.137Z,89.43
2023-02-19T19:27:56.225Z,89.56
2023-02-19T19:30:23.029Z,89.63
2023-02-19T19:32:50.398Z,89.96
2023-02-19T19:35:18.946Z,89.87
2023-02-19T19:37:45.491Z,90.09
2023-02-19T19:40:12.210Z,90.29
2023-02-19T19:42:38.678Z,90.41
2023-02-19T19:45:05.840Z,90.81
2023-02-19T19:47:32.523Z,91.06
2023-02-19T19:49:58.958Z,91.29
2023-02-19T19:52:25.341Z,91.20
2023-02-19T19:54:54.717Z,91.50
2023-02-19T19:57:21.173Z,91.29
2023-02-19T19:59:53.727Z,91.61
2023-02-19T20:02:20.334Z,91.70
2023-02-19T20:04:46.893Z,91.77
2023-02-19T20:07:13.320Z,92.09
2023-02-19T20:09:39.785Z,91.91
2023-02-19T20:12:06.681Z,92.27
2023-02-19T20:14:33.764Z,92.20
2023-02-19T20:17:00.856Z,92.30
2023-02-19T20:19:27.276Z,92.78
2023-02-19T20:21:54.008Z,92.46
2023-02-19T20:24:26.321Z,92.61
2023-02-19T20:27:01.881Z,92.61
2023-02-19T20:29:30.543Z,92.86
2023-02-19T20:32:00.565Z,93.18
2023-02-19T20:34:27.688Z,92.82
2023-02-19T20:36:54.498Z,92.79
2023-02-19T20:39:21.954Z,93.13
2023-02-19T20:41:50.811Z,92.78
2023-02-19T20:44:18.502Z,93.03
2023-02-19T20:46:49.886Z,93.22
2023-02-19T20:49:19.160Z,93.20
2023-02-19T20:51:54.991Z,93.18
2023-02-19T20:54:28.123Z,93.25
2023-02-19T20:56:56.629Z,93.28
2023-02-19T20:59:27.076Z,93.25
2023-02-19T21:01:53.696Z,93.16
2023-02-19T21:04:20.213Z,93.46
2023-02-19T21:06:46.670Z,93.45
2023-02-19T21:09:13.133Z,93.44
2023-02-19T21:11:39.743Z,93.70
2023-02-19T21:14:06.486Z,93.94
2023-02-19T21:16:33.365Z,94.06
2023-02-19T21:19:01.074Z,94.08
2023-02-19T21:21:27.857Z,94.28
2023-02-19T21:23:56.159Z,94.35
2023-02-19T21:26:23.313Z,94.47
2023-02-19T21:28:53.304Z,95.01
2023-02-19T21:31:20.834Z,94.59
2023-02-19T21:33:47.404Z,94.82
2023-02-19T21:36:14.057Z,94.77
2023-02-19T21:38:40.659Z,94.98
2023-02-19T21:41:07.205Z,95.05
2023-02-19T21:43:33.604Z,95.11
2023-02-19T21:46:00.028Z,95.17
2023-02-19T21:48:26.501Z,95.29
2023-02-19T21:50:52.884Z,95.41
2023-02-19T21:53:19.432Z,95.40
2023-02-19T21:55:57.790Z,95.53
2023-02-19T21:58:24.580Z,95.59
2023-02-19T22:00:50.956Z,95.71
2023-02-19T22:03:17.426Z,95.72
2023-02-19T22:05:43.905Z,95.85
2023-02-19T22:08:10.294Z,95.92
2023-02-19T22:10:36.676Z,95.79
2023-02-19T22:13:03.080Z,95.87
2023-02-19T22:15:29.517Z,96.08
2023-02-19T22:17:55.920Z,96.03
2023-02-19T22:20:22.272Z,96.39
2023-02-19T22:22:49.767Z,96.00
2023-02-19T22:25:16.831Z,96.23
2023-02-19T22:27:43.282Z,96.58
2023-02-19T22:30:10.691Z,96.28
2023-02-19T22:32:37.283Z,96.37
2023-02-19T22:35:03.836Z,96.32
2023-02-19T22:37:30.234Z,96.26
2023-02-19T22:39:56.652Z,96.19
2023-02-19T22:42:24.216Z,96.49
2023-02-19T22:44:50.805Z,96.44
2023-02-19T22:47:18.584Z,96.65
2023-02-19T22:49:45.451Z,96.64
2023-02-19T22:52:12.704Z,96.41
2023-02-19T22:54:39.401Z,96.63
2023-02-19T22:57:06.094Z,96.49
2023-02-19T22:59:32.675Z,96.65
2023-02-19T23:01:59.116Z,96.73
2023-02-19T23:04:25.833Z,96.62
2023-02-19T23:06:52.876Z,96.81
2023-02-19T23:09:22.804Z,96.54
2023-02-19T23:11:49.226Z,96.87
2023-02-19T23:14:17.566Z,96.71
2023-02-19T23:16:44.157Z,96.71
2023-02-19T23:19:12.990Z,96.61
2023-02-19T23:21:41.138Z,96.52
2023-02-19T23:24:08.195Z,96.86
2023-02-19T23:26:35.283Z,96.59
2023-02-19T23:29:02.369Z,96.91
2023-02-19T23:31:28.961Z,96.78
2023-02-19T23:33:55.607Z,96.67
2023-02-19T23:36:23.785Z,96.69
2023-02-19T23:38:50.211Z,96.58
2023-02-19T23:41:17.608Z,96.68
2023-02-19T23:43:44.716Z,96.72
2023-02-19T23:46:17.643Z,96.62
2023-02-19T23:48:45.354Z,96.85
2023-02-19T23:51:12.288Z,96.54
2023-02-19T23:53:38.714Z,96.58
2023-02-19T23:56:05.725Z,96.66
2023-02-19T23:58:32.451Z,96.29
